sensor_id;sensor_type;location;lat;lon;timestamp;P1;durP1;ratioP1;P2;durP2;ratioP2
15408;SDS011;7803;48.130;13.788;2024-01-11T00:00:55;14.95;;;13.45;;
15408;SDS011;7803;48.130;13.788;2024-01-11T00:03:59;17.98;;;15.25;;
15408;SDS011;7803;48.130;13.788;2024-01-11T00:07:01;15.02;;;13.52;;
15408;SDS011;7803;48.130;13.788;2024-01-11T00:10:04;15.27;;;13.63;;
15408;SDS011;7803;48.130;13.788;2024-01-11T00:13:07;15.93;;;14.23;;
15408;SDS011;7803;48.130;13.788;2024-01-11T00:16:09;14.93;;;13.30;;
15408;SDS011;7803;48.130;13.788;2024-01-11T00:19:11;15.05;;;13.55;;
15408;SDS011;7803;48.130;13.788;2024-01-11T00:22:13;15.10;;;13.50;;
15408;SDS011;7803;48.130;13.788;2024-01-11T00:25:16;16.00;;;14.05;;
15408;SDS011;7803;48.130;13.788;2024-01-11T00:28:18;15.30;;;13.70;;
15408;SDS011;7803;48.130;13.788;2024-01-11T00:31:20;15.38;;;13.77;;
15408;SDS011;7803;48.130;13.788;2024-01-11T00:34:22;15.50;;;13.50;;
15408;SDS011;7803;48.130;13.788;2024-01-11T00:37:24;14.85;;;13.25;;
15408;SDS011;7803;48.130;13.788;2024-01-11T00:40:28;14.40;;;12.90;;
15408;SDS011;7803;48.130;13.788;2024-01-11T00:43:30;14.90;;;13.30;;
15408;SDS011;7803;48.130;13.788;2024-01-11T00:46:32;15.00;;;13.40;;
15408;SDS011;7803;48.130;13.788;2024-01-11T00:49:34;15.32;;;13.77;;
15408;SDS011;7803;48.130;13.788;2024-01-11T00:52:36;14.93;;;13.43;;
15408;SDS011;7803;48.130;13.788;2024-01-11T00:55:40;14.60;;;13.02;;
15408;SDS011;7803;48.130;13.788;2024-01-11T00:58:42;14.80;;;13.30;;
15408;SDS011;7803;48.130;13.788;2024-01-11T01:01:46;14.98;;;13.40;;
15408;SDS011;7803;48.130;13.788;2024-01-11T01:04:49;15.73;;;14.05;;
15408;SDS011;7803;48.130;13.788;2024-01-11T01:07:51;14.02;;;12.48;;
15408;SDS011;7803;48.130;13.788;2024-01-11T01:10:54;14.60;;;13.10;;
15408;SDS011;7803;48.130;13.788;2024-01-11T01:13:59;15.70;;;13.65;;
15408;SDS011;7803;48.130;13.788;2024-01-11T01:17:01;14.88;;;13.38;;
15408;SDS011;7803;48.130;13.788;2024-01-11T01:20:03;14.40;;;12.90;;
15408;SDS011;7803;48.130;13.788;2024-01-11T01:23:06;14.00;;;12.60;;
15408;SDS011;7803;48.130;13.788;2024-01-11T01:26:09;14.13;;;12.73;;
15408;SDS011;7803;48.130;13.788;2024-01-11T01:29:11;14.70;;;13.02;;
15408;SDS011;7803;48.130;13.788;2024-01-11T01:32:13;14.43;;;12.90;;
15408;SDS011;7803;48.130;13.788;2024-01-11T01:35:15;14.35;;;12.82;;
15408;SDS011;7803;48.130;13.788;2024-01-11T01:38:17;14.13;;;12.63;;
15408;SDS011;7803;48.130;13.788;2024-01-11T01:41:21;16.88;;;13.52;;
15408;SDS011;7803;48.130;13.788;2024-01-11T01:44:23;13.52;;;12.13;;
15408;SDS011;7803;48.130;13.788;2024-01-11T01:47:25;14.25;;;12.75;;
15408;SDS011;7803;48.130;13.788;2024-01-11T01:50:27;14.88;;;12.68;;
15408;SDS011;7803;48.130;13.788;2024-01-11T01:53:30;14.15;;;12.68;;
15408;SDS011;7803;48.130;13.788;2024-01-11T01:56:34;13.88;;;12.43;;
15408;SDS011;7803;48.130;13.788;2024-01-11T01:59:36;12.95;;;11.65;;
15408;SDS011;7803;48.130;13.788;2024-01-11T02:02:39;13.70;;;12.30;;
15408;SDS011;7803;48.130;13.788;2024-01-11T02:05:43;13.43;;;12.02;;
15408;SDS011;7803;48.130;13.788;2024-01-11T02:08:46;13.05;;;11.75;;
15408;SDS011;7803;48.130;13.788;2024-01-11T02:11:51;16.10;;;12.88;;
15408;SDS011;7803;48.130;13.788;2024-01-11T02:14:53;14.43;;;12.00;;
15408;SDS011;7803;48.130;13.788;2024-01-11T02:17:55;12.50;;;11.25;;
15408;SDS011;7803;48.130;13.788;2024-01-11T02:20:57;13.95;;;12.45;;
15408;SDS011;7803;48.130;13.788;2024-01-11T02:24:04;14.02;;;11.85;;
15408;SDS011;7803;48.130;13.788;2024-01-11T02:27:06;13.13;;;11.82;;
15408;SDS011;7803;48.130;13.788;2024-01-11T02:30:10;13.75;;;12.35;;
15408;SDS011;7803;48.130;13.788;2024-01-11T02:33:13;14.18;;;12.68;;
15408;SDS011;7803;48.130;13.788;2024-01-11T02:36:16;14.15;;;12.35;;
15408;SDS011;7803;48.130;13.788;2024-01-11T02:39:20;14.55;;;12.52;;
15408;SDS011;7803;48.130;13.788;2024-01-11T02:42:23;14.10;;;12.60;;
15408;SDS011;7803;48.130;13.788;2024-01-11T02:45:27;13.73;;;12.32;;
15408;SDS011;7803;48.130;13.788;2024-01-11T02:48:29;14.60;;;13.10;;
15408;SDS011;7803;48.130;13.788;2024-01-11T02:51:31;14.63;;;13.13;;
15408;SDS011;7803;48.130;13.788;2024-01-11T02:54:34;14.60;;;13.10;;
15408;SDS011;7803;48.130;13.788;2024-01-11T02:57:36;14.35;;;12.85;;
15408;SDS011;7803;48.130;13.788;2024-01-11T03:00:38;14.13;;;12.73;;
15408;SDS011;7803;48.130;13.788;2024-01-11T03:03:40;15.70;;;14.10;;
15408;SDS011;7803;48.130;13.788;2024-01-11T03:06:42;15.38;;;13.60;;
15408;SDS011;7803;48.130;13.788;2024-01-11T03:09:45;15.23;;;13.63;;
15408;SDS011;7803;48.130;13.788;2024-01-11T03:12:47;15.05;;;13.55;;
15408;SDS011;7803;48.130;13.788;2024-01-11T03:15:50;15.43;;;13.82;;
15408;SDS011;7803;48.130;13.788;2024-01-11T03:18:52;15.75;;;14.05;;
15408;SDS011;7803;48.130;13.788;2024-01-11T03:21:54;15.50;;;14.00;;
15408;SDS011;7803;48.130;13.788;2024-01-11T03:24:57;15.63;;;14.13;;
15408;SDS011;7803;48.130;13.788;2024-01-11T03:27:59;15.00;;;13.50;;
15408;SDS011;7803;48.130;13.788;2024-01-11T03:31:01;15.57;;;13.98;;
15408;SDS011;7803;48.130;13.788;2024-01-11T03:34:03;14.88;;;13.38;;
15408;SDS011;7803;48.130;13.788;2024-01-11T03:37:05;16.00;;;14.30;;
15408;SDS011;7803;48.130;13.788;2024-01-11T03:40:09;14.82;;;13.43;;
15408;SDS011;7803;48.130;13.788;2024-01-11T03:43:11;15.23;;;13.73;;
15408;SDS011;7803;48.130;13.788;2024-01-11T03:46:13;14.75;;;13.25;;
15408;SDS011;7803;48.130;13.788;2024-01-11T03:49:15;15.10;;;13.60;;
15408;SDS011;7803;48.130;13.788;2024-01-11T03:52:17;14.98;;;13.45;;
15408;SDS011;7803;48.130;13.788;2024-01-11T03:55:21;15.65;;;14.05;;
15408;SDS011;7803;48.130;13.788;2024-01-11T03:58:23;15.27;;;13.65;;
15408;SDS011;7803;48.130;13.788;2024-01-11T04:01:26;15.07;;;13.57;;
15408;SDS011;7803;48.130;13.788;2024-01-11T04:04:28;15.23;;;13.65;;
15408;SDS011;7803;48.130;13.788;2024-01-11T04:07:30;16.27;;;14.18;;
15408;SDS011;7803;48.130;13.788;2024-01-11T04:10:34;14.80;;;13.30;;
15408;SDS011;7803;48.130;13.788;2024-01-11T04:13:36;14.60;;;13.10;;
15408;SDS011;7803;48.130;13.788;2024-01-11T04:16:39;14.93;;;13.43;;
15408;SDS011;7803;48.130;13.788;2024-01-11T04:19:42;18.45;;;14.07;;
15408;SDS011;7803;48.130;13.788;2024-01-11T04:22:44;16.48;;;14.10;;
15408;SDS011;7803;48.130;13.788;2024-01-11T04:25:47;14.90;;;13.40;;
15408;SDS011;7803;48.130;13.788;2024-01-11T04:28:50;15.20;;;13.60;;
15408;SDS011;7803;48.130;13.788;2024-01-11T04:31:53;14.55;;;13.05;;
15408;SDS011;7803;48.130;13.788;2024-01-11T04:34:55;14.73;;;13.30;;
15408;SDS011;7803;48.130;13.788;2024-01-11T04:37:57;14.07;;;12.60;;
15408;SDS011;7803;48.130;13.788;2024-01-11T04:41:00;15.32;;;13.65;;
15408;SDS011;7803;48.130;13.788;2024-01-11T04:44:02;14.35;;;12.95;;
15408;SDS011;7803;48.130;13.788;2024-01-11T04:47:05;15.15;;;13.65;;
15408;SDS011;7803;48.130;13.788;2024-01-11T04:50:08;14.20;;;12.80;;
15408;SDS011;7803;48.130;13.788;2024-01-11T04:53:10;14.73;;;13.23;;
15408;SDS011;7803;48.130;13.788;2024-01-11T04:56:14;16.10;;;13.98;;
15408;SDS011;7803;48.130;13.788;2024-01-11T04:59:17;14.43;;;12.93;;
15408;SDS011;7803;48.130;13.788;2024-01-11T05:02:20;14.18;;;12.77;;
15408;SDS011;7803;48.130;13.788;2024-01-11T05:05:22;13.57;;;12.13;;
15408;SDS011;7803;48.130;13.788;2024-01-11T05:08:24;14.02;;;12.73;;
15408;SDS011;7803;48.130;13.788;2024-01-11T05:11:29;13.98;;;12.57;;
15408;SDS011;7803;48.130;13.788;2024-01-11T05:14:31;14.48;;;13.07;;
15408;SDS011;7803;48.130;13.788;2024-01-11T05:17:33;14.73;;;13.23;;
15408;SDS011;7803;48.130;13.788;2024-01-11T05:20:35;13.88;;;12.45;;
15408;SDS011;7803;48.130;13.788;2024-01-11T05:23:37;14.65;;;13.18;;
15408;SDS011;7803;48.130;13.788;2024-01-11T05:26:40;14.32;;;12.88;;
15408;SDS011;7803;48.130;13.788;2024-01-11T05:29:42;13.80;;;12.40;;
15408;SDS011;7803;48.130;13.788;2024-01-11T05:32:44;15.38;;;13.15;;
15408;SDS011;7803;48.130;13.788;2024-01-11T05:35:46;13.85;;;12.48;;
15408;SDS011;7803;48.130;13.788;2024-01-11T05:38:48;14.02;;;12.60;;
15408;SDS011;7803;48.130;13.788;2024-01-11T05:41:51;13.73;;;12.35;;
15408;SDS011;7803;48.130;13.788;2024-01-11T05:44:53;13.90;;;12.50;;
15408;SDS011;7803;48.130;13.788;2024-01-11T05:47:55;13.98;;;12.57;;
15408;SDS011;7803;48.130;13.788;2024-01-11T05:50:57;13.60;;;12.30;;
15408;SDS011;7803;48.130;13.788;2024-01-11T05:53:59;13.82;;;12.43;;
15408;SDS011;7803;48.130;13.788;2024-01-11T05:57:03;13.30;;;11.95;;
15408;SDS011;7803;48.130;13.788;2024-01-11T06:00:06;13.05;;;11.75;;
15408;SDS011;7803;48.130;13.788;2024-01-11T06:03:11;14.02;;;12.52;;
15408;SDS011;7803;48.130;13.788;2024-01-11T06:06:13;15.00;;;13.40;;
15408;SDS011;7803;48.130;13.788;2024-01-11T06:09:15;14.73;;;13.25;;
15408;SDS011;7803;48.130;13.788;2024-01-11T06:12:18;15.30;;;13.80;;
15408;SDS011;7803;48.130;13.788;2024-01-11T06:15:20;15.75;;;14.10;;
15408;SDS011;7803;48.130;13.788;2024-01-11T06:18:22;15.15;;;13.65;;
15408;SDS011;7803;48.130;13.788;2024-01-11T06:21:24;15.25;;;13.73;;
15408;SDS011;7803;48.130;13.788;2024-01-11T06:24:26;14.35;;;12.95;;
15408;SDS011;7803;48.130;13.788;2024-01-11T06:27:30;14.50;;;13.00;;
15408;SDS011;7803;48.130;13.788;2024-01-11T06:30:32;13.60;;;12.20;;
15408;SDS011;7803;48.130;13.788;2024-01-11T06:33:34;13.00;;;11.73;;
15408;SDS011;7803;48.130;13.788;2024-01-11T06:36:37;13.07;;;11.77;;
15408;SDS011;7803;48.130;13.788;2024-01-11T06:39:39;13.10;;;11.90;;
15408;SDS011;7803;48.130;13.788;2024-01-11T06:42:43;13.38;;;11.98;;
15408;SDS011;7803;48.130;13.788;2024-01-11T06:45:45;13.32;;;11.93;;
15408;SDS011;7803;48.130;13.788;2024-01-11T06:48:47;13.18;;;11.77;;
15408;SDS011;7803;48.130;13.788;2024-01-11T06:51:49;13.00;;;11.70;;
15408;SDS011;7803;48.130;13.788;2024-01-11T06:54:51;13.40;;;12.02;;
15408;SDS011;7803;48.130;13.788;2024-01-11T06:57:54;13.35;;;11.95;;
15408;SDS011;7803;48.130;13.788;2024-01-11T07:00:57;12.88;;;11.40;;
15408;SDS011;7803;48.130;13.788;2024-01-11T07:03:59;12.98;;;11.68;;
15408;SDS011;7803;48.130;13.788;2024-01-11T07:07:01;13.43;;;11.30;;
15408;SDS011;7803;48.130;13.788;2024-01-11T07:10:05;12.60;;;11.30;;
15408;SDS011;7803;48.130;13.788;2024-01-11T07:13:10;12.50;;;11.10;;
15408;SDS011;7803;48.130;13.788;2024-01-11T07:16:15;12.23;;;11.02;;
15408;SDS011;7803;48.130;13.788;2024-01-11T07:19:17;11.30;;;10.20;;
15408;SDS011;7803;48.130;13.788;2024-01-11T07:22:19;14.52;;;11.55;;
15408;SDS011;7803;48.130;13.788;2024-01-11T07:25:21;17.08;;;14.45;;
15408;SDS011;7803;48.130;13.788;2024-01-11T07:28:24;21.65;;;18.38;;
15408;SDS011;7803;48.130;13.788;2024-01-11T07:31:26;18.15;;;15.80;;
15408;SDS011;7803;48.130;13.788;2024-01-11T07:34:29;17.92;;;16.02;;
15408;SDS011;7803;48.130;13.788;2024-01-11T07:37:31;18.05;;;15.75;;
15408;SDS011;7803;48.130;13.788;2024-01-11T07:40:33;18.88;;;16.10;;
15408;SDS011;7803;48.130;13.788;2024-01-11T07:43:36;18.65;;;16.08;;
15408;SDS011;7803;48.130;13.788;2024-01-11T07:46:38;17.15;;;15.10;;
15408;SDS011;7803;48.130;13.788;2024-01-11T07:49:40;18.48;;;15.13;;
15408;SDS011;7803;48.130;13.788;2024-01-11T07:52:42;16.90;;;14.77;;
15408;SDS011;7803;48.130;13.788;2024-01-11T07:55:45;15.88;;;14.18;;
15408;SDS011;7803;48.130;13.788;2024-01-11T07:58:49;16.60;;;14.57;;
15408;SDS011;7803;48.130;13.788;2024-01-11T08:01:51;15.88;;;14.18;;
15408;SDS011;7803;48.130;13.788;2024-01-11T08:04:53;15.50;;;13.90;;
15408;SDS011;7803;48.130;13.788;2024-01-11T08:07:55;17.13;;;14.40;;
15408;SDS011;7803;48.130;13.788;2024-01-11T08:11:01;18.58;;;14.55;;
15408;SDS011;7803;48.130;13.788;2024-01-11T08:14:05;15.55;;;13.95;;
15408;SDS011;7803;48.130;13.788;2024-01-11T08:17:07;16.90;;;14.38;;
15408;SDS011;7803;48.130;13.788;2024-01-11T08:20:10;15.90;;;13.57;;
15408;SDS011;7803;48.130;13.788;2024-01-11T08:23:12;15.65;;;13.63;;
15408;SDS011;7803;48.130;13.788;2024-01-11T08:26:14;14.70;;;13.20;;
15408;SDS011;7803;48.130;13.788;2024-01-11T08:29:20;14.52;;;13.02;;
15408;SDS011;7803;48.130;13.788;2024-01-11T08:32:22;14.80;;;13.30;;
15408;SDS011;7803;48.130;13.788;2024-01-11T08:35:24;15.45;;;13.55;;
15408;SDS011;7803;48.130;13.788;2024-01-11T08:38:26;14.73;;;13.02;;
15408;SDS011;7803;48.130;13.788;2024-01-11T08:41:29;14.48;;;12.57;;
15408;SDS011;7803;48.130;13.788;2024-01-11T08:44:32;14.35;;;12.60;;
15408;SDS011;7803;48.130;13.788;2024-01-11T08:47:34;15.23;;;13.07;;
15408;SDS011;7803;48.130;13.788;2024-01-11T08:50:38;14.38;;;12.85;;
15408;SDS011;7803;48.130;13.788;2024-01-11T08:53:40;14.13;;;12.60;;
15408;SDS011;7803;48.130;13.788;2024-01-11T08:56:42;14.05;;;12.48;;
15408;SDS011;7803;48.130;13.788;2024-01-11T08:59:45;14.27;;;12.75;;
15408;SDS011;7803;48.130;13.788;2024-01-11T09:02:47;13.82;;;12.40;;
15408;SDS011;7803;48.130;13.788;2024-01-11T09:05:49;16.27;;;13.15;;
15408;SDS011;7803;48.130;13.788;2024-01-11T09:08:52;14.10;;;12.57;;
15408;SDS011;7803;48.130;13.788;2024-01-11T09:11:54;15.23;;;12.73;;
15408;SDS011;7803;48.130;13.788;2024-01-11T09:14:57;16.33;;;13.02;;
15408;SDS011;7803;48.130;13.788;2024-01-11T09:17:59;14.52;;;12.35;;
15408;SDS011;7803;48.130;13.788;2024-01-11T09:21:01;13.93;;;12.43;;
15408;SDS011;7803;48.130;13.788;2024-01-11T09:24:04;13.52;;;12.13;;
15408;SDS011;7803;48.130;13.788;2024-01-11T09:27:06;13.40;;;12.02;;
15408;SDS011;7803;48.130;13.788;2024-01-11T09:30:10;14.07;;;12.27;;
15408;SDS011;7803;48.130;13.788;2024-01-11T09:33:12;14.27;;;12.77;;
15408;SDS011;7803;48.130;13.788;2024-01-11T09:36:14;13.13;;;11.80;;
15408;SDS011;7803;48.130;13.788;2024-01-11T09:39:16;18.88;;;13.50;;
15408;SDS011;7803;48.130;13.788;2024-01-11T09:42:18;15.25;;;12.63;;
15408;SDS011;7803;48.130;13.788;2024-01-11T09:45:22;13.70;;;11.77;;
15408;SDS011;7803;48.130;13.788;2024-01-11T09:48:24;14.10;;;12.60;;
15408;SDS011;7803;48.130;13.788;2024-01-11T09:51:27;14.23;;;12.73;;
15408;SDS011;7803;48.130;13.788;2024-01-11T09:54:30;14.30;;;12.60;;
15408;SDS011;7803;48.130;13.788;2024-01-11T09:57:32;14.40;;;12.15;;
15408;SDS011;7803;48.130;13.788;2024-01-11T10:00:39;13.77;;;11.93;;
15408;SDS011;7803;48.130;13.788;2024-01-11T10:03:42;14.32;;;12.57;;
15408;SDS011;7803;48.130;13.788;2024-01-11T10:06:46;14.85;;;11.73;;
15408;SDS011;7803;48.130;13.788;2024-01-11T10:09:51;15.98;;;12.55;;
15408;SDS011;7803;48.130;13.788;2024-01-11T10:12:53;16.23;;;12.35;;
15408;SDS011;7803;48.130;13.788;2024-01-11T10:16:06;15.02;;;11.75;;
15408;SDS011;7803;48.130;13.788;2024-01-11T10:19:09;13.27;;;11.40;;
15408;SDS011;7803;48.130;13.788;2024-01-11T10:22:13;15.70;;;11.48;;
15408;SDS011;7803;48.130;13.788;2024-01-11T10:25:17;15.98;;;12.20;;
15408;SDS011;7803;48.130;13.788;2024-01-11T10:28:19;17.98;;;12.20;;
15408;SDS011;7803;48.130;13.788;2024-01-11T10:31:23;19.65;;;12.32;;
15408;SDS011;7803;48.130;13.788;2024-01-11T10:34:27;14.38;;;11.73;;
15408;SDS011;7803;48.130;13.788;2024-01-11T10:37:29;15.20;;;12.00;;
15408;SDS011;7803;48.130;13.788;2024-01-11T10:40:32;13.48;;;11.52;;
15408;SDS011;7803;48.130;13.788;2024-01-11T10:43:36;13.45;;;11.70;;
15408;SDS011;7803;48.130;13.788;2024-01-11T10:46:40;16.10;;;13.60;;
15408;SDS011;7803;48.130;13.788;2024-01-11T10:49:43;18.42;;;15.82;;
15408;SDS011;7803;48.130;13.788;2024-01-11T10:52:52;18.92;;;16.38;;
15408;SDS011;7803;48.130;13.788;2024-01-11T10:56:04;18.02;;;15.55;;
15408;SDS011;7803;48.130;13.788;2024-01-11T10:59:07;16.05;;;14.30;;
15408;SDS011;7803;48.130;13.788;2024-01-11T11:02:11;16.00;;;13.85;;
15408;SDS011;7803;48.130;13.788;2024-01-11T11:05:15;15.05;;;13.05;;
15408;SDS011;7803;48.130;13.788;2024-01-11T11:08:21;15.98;;;13.43;;
15408;SDS011;7803;48.130;13.788;2024-01-11T11:11:25;14.82;;;13.32;;
15408;SDS011;7803;48.130;13.788;2024-01-11T11:14:29;14.90;;;13.13;;
15408;SDS011;7803;48.130;13.788;2024-01-11T11:17:34;13.90;;;12.40;;
15408;SDS011;7803;48.130;13.788;2024-01-11T11:20:36;13.65;;;12.25;;
15408;SDS011;7803;48.130;13.788;2024-01-11T11:23:39;15.32;;;12.88;;
15408;SDS011;7803;48.130;13.788;2024-01-11T11:26:41;14.18;;;12.75;;
15408;SDS011;7803;48.130;13.788;2024-01-11T11:29:46;15.15;;;12.30;;
15408;SDS011;7803;48.130;13.788;2024-01-11T11:32:50;13.55;;;12.15;;
15408;SDS011;7803;48.130;13.788;2024-01-11T11:35:53;14.25;;;12.18;;
15408;SDS011;7803;48.130;13.788;2024-01-11T11:38:56;13.30;;;11.98;;
15408;SDS011;7803;48.130;13.788;2024-01-11T11:42:00;13.57;;;12.25;;
15408;SDS011;7803;48.130;13.788;2024-01-11T11:45:04;13.25;;;11.55;;
15408;SDS011;7803;48.130;13.788;2024-01-11T11:51:55;13.23;;;11.75;;
15408;SDS011;7803;48.130;13.788;2024-01-11T11:54:58;12.75;;;11.50;;
15408;SDS011;7803;48.130;13.788;2024-01-11T11:58:01;12.57;;;11.30;;
15408;SDS011;7803;48.130;13.788;2024-01-11T12:01:03;14.63;;;12.20;;
15408;SDS011;7803;48.130;13.788;2024-01-11T12:04:07;12.10;;;10.90;;
15408;SDS011;7803;48.130;13.788;2024-01-11T12:07:09;12.25;;;11.05;;
15408;SDS011;7803;48.130;13.788;2024-01-11T12:10:11;11.88;;;10.68;;
15408;SDS011;7803;48.130;13.788;2024-01-11T12:13:13;12.93;;;11.27;;
15408;SDS011;7803;48.130;13.788;2024-01-11T12:16:16;18.60;;;16.67;;
15408;SDS011;7803;48.130;13.788;2024-01-11T12:19:19;23.48;;;20.98;;
15408;SDS011;7803;48.130;13.788;2024-01-11T12:22:21;23.92;;;21.15;;
15408;SDS011;7803;48.130;13.788;2024-01-11T12:25:23;27.35;;;23.17;;
15408;SDS011;7803;48.130;13.788;2024-01-11T12:28:25;24.45;;;20.95;;
15408;SDS011;7803;48.130;13.788;2024-01-11T12:31:28;29.48;;;20.65;;
15408;SDS011;7803;48.130;13.788;2024-01-11T12:34:31;29.67;;;19.33;;
15408;SDS011;7803;48.130;13.788;2024-01-11T12:37:34;29.23;;;19.90;;
15408;SDS011;7803;48.130;13.788;2024-01-11T12:40:36;28.10;;;19.20;;
15408;SDS011;7803;48.130;13.788;2024-01-11T12:43:38;20.23;;;16.65;;
15408;SDS011;7803;48.130;13.788;2024-01-11T12:46:40;22.75;;;17.10;;
15408;SDS011;7803;48.130;13.788;2024-01-11T12:49:44;24.58;;;17.77;;
15408;SDS011;7803;48.130;13.788;2024-01-11T12:52:47;23.48;;;17.15;;
15408;SDS011;7803;48.130;13.788;2024-01-11T12:56:05;25.98;;;16.60;;
15408;SDS011;7803;48.130;13.788;2024-01-11T12:59:10;28.95;;;17.55;;
15408;SDS011;7803;48.130;13.788;2024-01-11T13:02:15;33.20;;;19.52;;
15408;SDS011;7803;48.130;13.788;2024-01-11T13:05:18;35.83;;;19.98;;
15408;SDS011;7803;48.130;13.788;2024-01-11T13:08:21;31.50;;;19.73;;
15408;SDS011;7803;48.130;13.788;2024-01-11T13:11:24;25.65;;;17.33;;
15408;SDS011;7803;48.130;13.788;2024-01-11T13:14:26;23.38;;;16.38;;
15408;SDS011;7803;48.130;13.788;2024-01-11T13:17:29;22.15;;;15.25;;
15408;SDS011;7803;48.130;13.788;2024-01-11T13:20:32;19.77;;;14.90;;
15408;SDS011;7803;48.130;13.788;2024-01-11T13:23:34;20.50;;;15.48;;
15408;SDS011;7803;48.130;13.788;2024-01-11T13:26:38;20.92;;;14.95;;
15408;SDS011;7803;48.130;13.788;2024-01-11T13:29:40;18.00;;;13.73;;
15408;SDS011;7803;48.130;13.788;2024-01-11T13:32:42;18.92;;;14.27;;
15408;SDS011;7803;48.130;13.788;2024-01-11T13:35:45;17.85;;;13.68;;
15408;SDS011;7803;48.130;13.788;2024-01-11T13:38:47;16.27;;;13.43;;
15408;SDS011;7803;48.130;13.788;2024-01-11T13:41:50;16.45;;;13.38;;
15408;SDS011;7803;48.130;13.788;2024-01-11T13:44:52;14.88;;;12.93;;
15408;SDS011;7803;48.130;13.788;2024-01-11T13:47:54;16.92;;;12.80;;
15408;SDS011;7803;48.130;13.788;2024-01-11T13:50:58;15.65;;;12.55;;
15408;SDS011;7803;48.130;13.788;2024-01-11T13:54:01;14.18;;;11.63;;
15408;SDS011;7803;48.130;13.788;2024-01-11T13:57:03;15.27;;;12.15;;
15408;SDS011;7803;48.130;13.788;2024-01-11T14:00:07;13.98;;;12.10;;
15408;SDS011;7803;48.130;13.788;2024-01-11T14:03:11;14.68;;;12.25;;
15408;SDS011;7803;48.130;13.788;2024-01-11T14:06:15;13.07;;;11.68;;
15408;SDS011;7803;48.130;13.788;2024-01-11T14:09:17;14.93;;;12.27;;
15408;SDS011;7803;48.130;13.788;2024-01-11T14:12:19;14.50;;;11.50;;
15408;SDS011;7803;48.130;13.788;2024-01-11T14:15:21;14.13;;;11.55;;
15408;SDS011;7803;48.130;13.788;2024-01-11T14:18:23;13.10;;;11.38;;
15408;SDS011;7803;48.130;13.788;2024-01-11T14:21:26;12.77;;;11.35;;
15408;SDS011;7803;48.130;13.788;2024-01-11T14:24:28;12.85;;;11.35;;
15408;SDS011;7803;48.130;13.788;2024-01-11T14:27:30;13.20;;;11.40;;
15408;SDS011;7803;48.130;13.788;2024-01-11T14:30:32;13.65;;;11.52;;
15408;SDS011;7803;48.130;13.788;2024-01-11T14:33:34;14.05;;;12.23;;
15408;SDS011;7803;48.130;13.788;2024-01-11T14:36:38;14.07;;;12.02;;
15408;SDS011;7803;48.130;13.788;2024-01-11T14:39:40;14.27;;;11.82;;
15408;SDS011;7803;48.130;13.788;2024-01-11T14:42:42;13.02;;;11.20;;
15408;SDS011;7803;48.130;13.788;2024-01-11T14:45:44;15.32;;;12.13;;
15408;SDS011;7803;48.130;13.788;2024-01-11T14:48:46;13.65;;;11.80;;
15408;SDS011;7803;48.130;13.788;2024-01-11T14:51:50;13.50;;;11.32;;
15408;SDS011;7803;48.130;13.788;2024-01-11T14:54:52;14.48;;;11.23;;
15408;SDS011;7803;48.130;13.788;2024-01-11T14:57:54;12.48;;;11.18;;
15408;SDS011;7803;48.130;13.788;2024-01-11T15:00:56;13.30;;;11.45;;
15408;SDS011;7803;48.130;13.788;2024-01-11T15:03:58;14.38;;;11.15;;
15408;SDS011;7803;48.130;13.788;2024-01-11T15:07:01;13.95;;;11.40;;
15408;SDS011;7803;48.130;13.788;2024-01-11T15:10:03;13.18;;;11.45;;
15408;SDS011;7803;48.130;13.788;2024-01-11T15:13:05;12.63;;;11.25;;
15408;SDS011;7803;48.130;13.788;2024-01-11T15:16:08;14.55;;;11.70;;
15408;SDS011;7803;48.130;13.788;2024-01-11T15:19:10;13.20;;;11.32;;
15408;SDS011;7803;48.130;13.788;2024-01-11T15:22:13;12.80;;;11.23;;
15408;SDS011;7803;48.130;13.788;2024-01-11T15:25:16;12.77;;;11.48;;
15408;SDS011;7803;48.130;13.788;2024-01-11T15:28:18;13.75;;;12.27;;
15408;SDS011;7803;48.130;13.788;2024-01-11T15:31:20;19.40;;;16.33;;
15408;SDS011;7803;48.130;13.788;2024-01-11T15:34:23;18.85;;;15.77;;
15408;SDS011;7803;48.130;13.788;2024-01-11T15:37:26;16.20;;;14.50;;
15408;SDS011;7803;48.130;13.788;2024-01-11T15:40:29;15.48;;;13.25;;
15408;SDS011;7803;48.130;13.788;2024-01-11T15:43:31;15.52;;;13.43;;
15408;SDS011;7803;48.130;13.788;2024-01-11T15:46:32;15.65;;;13.02;;
15408;SDS011;7803;48.130;13.788;2024-01-11T15:49:34;15.45;;;12.50;;
15408;SDS011;7803;48.130;13.788;2024-01-11T15:52:38;13.90;;;12.40;;
15408;SDS011;7803;48.130;13.788;2024-01-11T15:55:40;14.88;;;12.23;;
15408;SDS011;7803;48.130;13.788;2024-01-11T15:58:42;14.25;;;12.35;;
15408;SDS011;7803;48.130;13.788;2024-01-11T16:01:44;14.35;;;12.18;;
15408;SDS011;7803;48.130;13.788;2024-01-11T16:04:46;15.23;;;12.68;;
15408;SDS011;7803;48.130;13.788;2024-01-11T16:07:50;15.68;;;12.65;;
15408;SDS011;7803;48.130;13.788;2024-01-11T16:10:52;14.82;;;12.15;;
15408;SDS011;7803;48.130;13.788;2024-01-11T16:13:53;14.57;;;12.35;;
15408;SDS011;7803;48.130;13.788;2024-01-11T16:16:55;17.52;;;12.00;;
15408;SDS011;7803;48.130;13.788;2024-01-11T16:19:57;15.52;;;11.90;;
15408;SDS011;7803;48.130;13.788;2024-01-11T16:23:01;14.80;;;11.23;;
15408;SDS011;7803;48.130;13.788;2024-01-11T16:26:05;14.40;;;11.23;;
15408;SDS011;7803;48.130;13.788;2024-01-11T16:29:08;17.52;;;12.02;;
15408;SDS011;7803;48.130;13.788;2024-01-11T16:32:10;14.40;;;11.93;;
15408;SDS011;7803;48.130;13.788;2024-01-11T16:35:12;15.85;;;11.45;;
15408;SDS011;7803;48.130;13.788;2024-01-11T16:38:15;15.75;;;12.27;;
15408;SDS011;7803;48.130;13.788;2024-01-11T16:41:18;14.45;;;11.68;;
15408;SDS011;7803;48.130;13.788;2024-01-11T16:44:20;14.60;;;11.95;;
15408;SDS011;7803;48.130;13.788;2024-01-11T16:47:22;14.10;;;11.90;;
15408;SDS011;7803;48.130;13.788;2024-01-11T16:50:24;12.85;;;11.07;;
15408;SDS011;7803;48.130;13.788;2024-01-11T16:53:27;13.38;;;11.65;;
15408;SDS011;7803;48.130;13.788;2024-01-11T16:56:30;12.50;;;11.20;;
15408;SDS011;7803;48.130;13.788;2024-01-11T16:59:32;15.32;;;11.32;;
15408;SDS011;7803;48.130;13.788;2024-01-11T17:02:36;14.07;;;11.40;;
15408;SDS011;7803;48.130;13.788;2024-01-11T17:05:37;13.65;;;11.60;;
15408;SDS011;7803;48.130;13.788;2024-01-11T17:08:41;14.65;;;11.20;;
15408;SDS011;7803;48.130;13.788;2024-01-11T17:11:43;14.15;;;11.48;;
15408;SDS011;7803;48.130;13.788;2024-01-11T17:14:45;15.30;;;11.30;;
15408;SDS011;7803;48.130;13.788;2024-01-11T17:17:47;13.02;;;10.98;;
15408;SDS011;7803;48.130;13.788;2024-01-11T17:20:49;12.05;;;10.75;;
15408;SDS011;7803;48.130;13.788;2024-01-11T17:23:52;12.60;;;11.13;;
15408;SDS011;7803;48.130;13.788;2024-01-11T17:26:54;12.60;;;11.02;;
15408;SDS011;7803;48.130;13.788;2024-01-11T17:29:58;12.25;;;11.00;;
15408;SDS011;7803;48.130;13.788;2024-01-11T17:33:00;12.95;;;10.55;;
15408;SDS011;7803;48.130;13.788;2024-01-11T17:36:03;18.13;;;12.00;;
15408;SDS011;7803;48.130;13.788;2024-01-11T17:39:08;13.30;;;11.50;;
15408;SDS011;7803;48.130;13.788;2024-01-11T17:42:09;19.00;;;11.85;;
15408;SDS011;7803;48.130;13.788;2024-01-11T17:45:11;14.57;;;11.35;;
15408;SDS011;7803;48.130;13.788;2024-01-11T17:48:14;13.60;;;10.68;;
15408;SDS011;7803;48.130;13.788;2024-01-11T17:51:16;17.65;;;15.18;;